Soleil Weather Down

Nearby METAR Reports

 

KCNI - Canton/Cherokee, Georgia, USA
Distance from station: ENE 6mi, 10km
Updated: Thu, 21-Jun-2018 7:55am EDT
Partly cloudy
Partly cloudy
 Wind from calm
Wind: Calm
Temperature: 73°F , 23°C
Dew Point: 68°F , 20°C
Humidity: 83%
Barometer: 29.94 inHg , 1013.9 hPa
Clouds: Partly cloudy
Visibility: 10 miles , 16 km
Cloud details: Partly cloudy 4300 ft
2018/06/21 11:55 KCNI 211155Z AUTO 00000KT 10SM SCT043 23/20 A2994 RMK A
KRYY - Marietta Mccolum, Georgia, USA
Distance from station: SSW 18mi, 29km
Updated: Thu, 21-Jun-2018 7:48am EDT
Clear
Clear
 Wind from calm
Wind: Calm
Temperature: 77°F , 25°C
Dew Point: 72°F , 22°C
Humidity: 83%
Barometer: 29.93 inHg , 1013.5 hPa
Clouds: Clear
Visibility: 10 miles , 16 km
2018/06/21 11:48 KRYY 211148Z 00000KT 10SM CLR 25/22 A2993 RMK AO2 SLP856 60000 T02500217 10261 20233 53006
KVPC - Cartersville, Georgia, USA
Distance from station: WSW 22mi, 35km
Updated: Thu, 21-Jun-2018 7:53am EDT
Few Clouds
Few Clouds
 Wind from calm
Wind: Calm
Temperature: 75°F , 24°C
Dew Point: 72°F , 22°C
Humidity: 89%
Barometer: 29.92 inHg , 1013.2 hPa
Clouds: Few Clouds
Visibility: 10 miles , 16 km
Cloud details: Few Clouds 4500 ft
2018/06/21 11:53 KVPC 211153Z AUTO 00000KT 10SM FEW045 24/22 A2992 RMK AO2 SLP118 T02390222 10239 20217 53006
 
KMGE - Dobbins Afb/Mari, Georgia, USA
Distance from station: S 24mi, 39km
Updated: Thu, 21-Jun-2018 7:56am EDT
Mostly cloudy
Mostly cloudy
 Wind from W
Wind: W 3 mph , 6 km/h
Temperature: 77°F , 25°C
Dew Point: 72°F , 22°C
Humidity: 83%
Barometer: 29.92 inHg , 1013.2 hPa
Clouds: Mostly cloudy
Visibility: 10 miles , 16 km
Cloud details: Mostly cloudy 15000 ft
Mostly cloudy 25000 ft
2018/06/21 11:56 KMGE 211156Z 27003KT 10SM BKN150 BKN250 25/22 A2992 RMK AO2A SLP121 60000 T02480215 10264 20226 52007 $
KPDK - Peachtree/Dekalb, Georgia, USA
Distance from station: SSE 29mi, 47km
Updated: Thu, 21-Jun-2018 7:53am EDT
Clear
Clear
 Wind from calm
Wind: Calm
Temperature: 79°F , 26°C
Dew Point: 72°F , 22°C
Humidity: 79%
Barometer: 29.92 inHg , 1013.2 hPa
Clouds: Clear
Visibility: 10 miles , 16 km
2018/06/21 11:53 KPDK 211153Z 00000KT 10SM CLR 26/22 A2992 RMK AO2 SLP110 T02560217 10267 20228 53006
KFTY - Atlanta/Fulton, Georgia, USA
Distance from station: S 34mi, 54km
Updated: Thu, 21-Jun-2018 7:53am EDT
Clear
Clear
 Wind from SW
Wind: SW 3 mph , 6 km/h
Temperature: 77°F , 25°C
Dew Point: 73°F , 23°C
Humidity: 89%
Barometer: 29.92 inHg , 1013.2 hPa
Clouds: Clear
Visibility: 10 miles , 16 km
2018/06/21 11:53 KFTY 211153Z 23003KT 10SM CLR 25/23 A2992 RMK AO2 SLP119 T02500228 10267 20228 53007
 
KPUJ - Atlanta/Paulding, Georgia, USA
Distance from station: SW 34mi, 55km
Updated: Thu, 21-Jun-2018 7:55am EDT
Partly cloudy
Partly cloudy
 Wind from calm
Wind: Calm
Temperature: 73°F , 23°C
Dew Point: 68°F , 20°C
Humidity: 83%
Barometer: 29.94 inHg , 1013.9 hPa
Clouds: Partly cloudy
Visibility: 7 miles , 11 km
Cloud details: Partly cloudy 12000 ft
2018/06/21 11:55 KPUJ 211155Z AUTO 00000KT 7SM SCT120 23/20 A2994 RMK AO2
KDNN - Dalton, Georgia, USA
Distance from station: NW 37mi, 59km
Updated: Thu, 21-Jun-2018 7:55am EDT
Mostly cloudy
Mostly cloudy
 Wind from calm
Wind: Calm
Temperature: 72°F , 22°C
Dew Point: 72°F , 22°C
Humidity: 100%
Barometer: 29.93 inHg , 1013.5 hPa
Clouds: Mostly cloudy
Visibility: 10 miles , 16 km
Cloud details: Partly cloudy 6500 ft
Partly cloudy 7500 ft
Mostly cloudy 8500 ft
2018/06/21 11:55 KDNN 211155Z AUTO 00000KT 10SM SCT065 SCT075 BKN085 22/22 A2993 RMK AO2
KLZU - Lawrenceville, Georgia, USA
Distance from station: ESE 37mi, 59km
Updated: Thu, 21-Jun-2018 7:56am EDT
Clear
Clear
 Wind from calm
Wind: Calm
Temperature: 79°F , 26°C
Dew Point: 70°F , 21°C
Humidity: 74%
Barometer: 29.92 inHg , 1013.2 hPa
Clouds: Clear
Visibility: 10 miles , 16 km
2018/06/21 11:56 KLZU 211156Z 00000KT 10SM CLR 26/21 A2992 RMK AO2 SLP131 T02610206 10261 20228 51008
 
KRMG - Rome, Georgia, USA
Distance from station: W 38mi, 61km
Updated: Thu, 21-Jun-2018 7:53am EDT
Overcast
Overcast
 Wind from NNE
Wind: NNE 5 mph , 7 km/h
Temperature: 75°F , 24°C
Dew Point: 73°F , 23°C
Humidity: 94%
Barometer: 29.91 inHg , 1012.9 hPa
Clouds: Overcast
Visibility: 10 miles , 16 km
Cloud details: Few Clouds 2500 ft
Partly cloudy 4900 ft
Overcast 6000 ft
2018/06/21 11:53 KRMG 211153Z AUTO 03004KT 10SM FEW025 SCT049 OVC060 24/23 A2991 RMK AO2 RAB33E47 SLP117 P0003 60003 70003 T02390233 10250 20222 53008
KGVL - Gainesville, Georgia, USA
Distance from station: E 39mi, 62km
Updated: Thu, 21-Jun-2018 7:53am EDT
Clear
Clear
 Wind from W
Wind: W 3 mph , 6 km/h
Temperature: 79°F , 26°C
Dew Point: 70°F , 21°C
Humidity: 74%
Barometer: 29.95 inHg , 1014.2 hPa
Clouds: Clear
Visibility: 10 miles , 16 km
2018/06/21 11:53 KGVL 211153Z AUTO 26003KT 10SM CLR 26/21 A2995 RMK AO2 SLP121 60000 T02560206 10256 20233 53007
KATL - Atlanta, Georgia, USA
Distance from station: S 44mi, 71km
Updated: Thu, 21-Jun-2018 7:52am EDT
Mostly cloudy
Mostly cloudy
 Wind from SW
Wind: SW 5 mph , 7 km/h
Temperature: 79°F , 26°C
Dew Point: 70°F , 21°C
Humidity: 74%
Barometer: 29.92 inHg , 1013.2 hPa
Clouds: Mostly cloudy
Visibility: 9 miles , 14 km
Cloud details: Partly cloudy 15000 ft
Mostly cloudy 20000 ft
Mostly cloudy 25000 ft
2018/06/21 11:52 KATL 211152Z 22004KT 9SM SCT150 BKN200 BKN250 26/21 A2992 RMK AO2 SLP121 60000 T02560206 10267 20244 53006